createdAt,value
2017-10-11T00:02:14.678Z,11.90
2017-10-11T00:05:25.436Z,11.90
2017-10-11T00:08:35.384Z,11.90
2017-10-11T00:11:45.323Z,11.90
2017-10-11T00:14:55.485Z,12.00
2017-10-11T00:18:05.396Z,11.90
2017-10-11T00:21:15.850Z,11.90
2017-10-11T00:24:26.331Z,11.90
2017-10-11T00:27:36.626Z,12.00
2017-10-11T00:30:46.638Z,11.90
2017-10-11T00:33:58.487Z,11.90
2017-10-11T00:37:08.300Z,11.90
2017-10-11T00:40:18.228Z,11.90
2017-10-11T00:43:28.210Z,11.90
2017-10-11T00:46:39.088Z,11.90
2017-10-11T00:49:49.563Z,11.90
2017-10-11T00:53:00.633Z,12.00
2017-10-11T00:56:10.505Z,12.00
2017-10-11T00:59:21.037Z,12.00
2017-10-11T01:02:32.013Z,11.90
2017-10-11T01:05:42.092Z,11.90
2017-10-11T01:08:52.843Z,12.00
2017-10-11T01:12:06.539Z,12.00
2017-10-11T01:15:17.235Z,12.00
2017-10-11T01:18:27.944Z,12.00
2017-10-11T01:21:38.252Z,12.00
2017-10-11T01:24:48.477Z,12.00
2017-10-11T01:27:58.467Z,12.00
2017-10-11T01:31:08.621Z,12.00
2017-10-11T01:34:19.283Z,12.00
2017-10-11T01:37:30.154Z,12.00
2017-10-11T01:40:40.238Z,12.00
2017-10-11T01:43:51.615Z,12.00
2017-10-11T01:47:01.965Z,12.00
2017-10-11T01:50:12.528Z,12.00
2017-10-11T01:53:22.913Z,12.00
2017-10-11T01:56:32.952Z,12.00
2017-10-11T01:59:44.664Z,12.00
2017-10-11T02:02:54.730Z,12.00
2017-10-11T02:06:04.594Z,12.00
2017-10-11T02:09:15.372Z,12.00
2017-10-11T02:12:26.034Z,12.00
2017-10-11T02:15:35.966Z,12.00
2017-10-11T02:18:45.961Z,12.00
2017-10-11T02:21:56.701Z,12.00
2017-10-11T02:25:07.042Z,12.00
2017-10-11T02:28:17.654Z,12.10
2017-10-11T02:31:27.473Z,12.10
2017-10-11T02:34:38.050Z,12.10
2017-10-11T02:37:48.815Z,12.10
2017-10-11T02:40:59.559Z,12.10
2017-10-11T02:44:10.351Z,12.10
2017-10-11T02:47:21.793Z,12.10
2017-10-11T02:50:31.834Z,12.10
2017-10-11T02:53:42.648Z,12.10
2017-10-11T02:56:53.426Z,12.10
2017-10-11T03:00:03.706Z,12.10
2017-10-11T03:03:13.649Z,12.10
2017-10-11T03:06:23.610Z,12.10
2017-10-11T03:09:34.378Z,12.10
2017-10-11T03:12:44.027Z,12.20
2017-10-11T03:15:54.062Z,12.20
2017-10-11T03:19:04.902Z,12.20
2017-10-11T03:22:14.844Z,12.20
2017-10-11T03:25:25.498Z,12.20
2017-10-11T03:28:37.096Z,12.20
2017-10-11T03:31:47.906Z,12.20
2017-10-11T03:34:59.243Z,12.10
2017-10-11T03:38:09.403Z,12.10
2017-10-11T03:41:20.067Z,12.20
2017-10-11T03:44:30.465Z,12.20
2017-10-11T03:47:40.435Z,12.10
2017-10-11T03:50:50.930Z,12.10
2017-10-11T03:54:01.099Z,12.20
2017-10-11T03:57:12.160Z,12.20
2017-10-11T04:00:22.339Z,12.10
2017-10-11T04:03:33.170Z,12.20
2017-10-11T04:06:44.057Z,12.20
2017-10-11T04:09:54.870Z,12.20
2017-10-11T04:13:04.890Z,12.20
2017-10-11T04:19:55.130Z,12.20
2017-10-11T04:23:05.742Z,12.20
2017-10-11T04:26:16.288Z,12.20
2017-10-11T04:29:36.754Z,12.20
2017-10-11T04:32:46.890Z,12.20
2017-10-11T04:35:57.859Z,12.20
2017-10-11T04:39:08.454Z,12.20
2017-10-11T04:42:18.453Z,12.20
2017-10-11T04:45:29.109Z,12.20
2017-10-11T04:48:39.450Z,12.20
2017-10-11T04:51:49.988Z,12.20
2017-10-11T04:55:00.478Z,12.20
2017-10-11T04:58:11.414Z,12.20
2017-10-11T05:01:21.702Z,12.20
2017-10-11T05:04:31.742Z,12.20
2017-10-11T05:07:43.312Z,12.20
2017-10-11T05:10:54.245Z,12.20
2017-10-11T05:14:05.777Z,12.20
2017-10-11T05:17:15.974Z,12.20
2017-10-11T05:20:26.850Z,12.20
2017-10-11T05:23:37.487Z,12.10
2017-10-11T05:26:48.149Z,12.20
2017-10-11T05:29:59.067Z,12.20
2017-10-11T05:33:09.733Z,12.20
2017-10-11T05:36:20.549Z,12.20
2017-10-11T05:39:30.685Z,12.20
2017-10-11T05:42:41.477Z,12.20
2017-10-11T05:45:51.386Z,12.20
2017-10-11T05:49:01.335Z,12.20
2017-10-11T05:52:11.209Z,12.20
2017-10-11T05:55:21.980Z,12.20
2017-10-11T05:58:31.887Z,12.20
2017-10-11T06:01:41.813Z,12.20
2017-10-11T06:04:52.504Z,12.20
2017-10-11T06:08:02.974Z,12.20
2017-10-11T06:11:12.923Z,12.20
2017-10-11T06:14:22.932Z,12.20
2017-10-11T06:17:33.598Z,12.20
2017-10-11T06:20:44.381Z,12.20
2017-10-11T06:23:55.196Z,12.30
2017-10-11T06:27:05.838Z,12.30
2017-10-11T06:30:17.074Z,12.30
2017-10-11T06:33:27.925Z,12.30
2017-10-11T06:36:37.983Z,12.30
2017-10-11T06:39:49.667Z,12.30
2017-10-11T06:43:00.023Z,12.30
2017-10-11T06:46:10.206Z,12.30
2017-10-11T06:49:20.063Z,12.30
2017-10-11T06:52:30.862Z,12.40
2017-10-11T06:55:40.648Z,12.40
2017-10-11T06:58:50.652Z,12.40
2017-10-11T07:02:00.734Z,12.50
2017-10-11T07:05:11.566Z,12.60
2017-10-11T07:08:22.083Z,12.60
2017-10-11T07:11:32.888Z,12.60
2017-10-11T07:14:43.192Z,12.60
2017-10-11T07:17:53.865Z,12.70
2017-10-11T07:21:05.131Z,12.70
2017-10-11T07:24:15.014Z,12.70
2017-10-11T07:27:24.759Z,12.60
2017-10-11T07:30:35.440Z,12.60
2017-10-11T07:33:45.445Z,12.60
2017-10-11T07:36:57.063Z,12.60
2017-10-11T07:40:07.371Z,12.60
2017-10-11T07:43:18.100Z,12.60
2017-10-11T07:46:28.625Z,12.70
2017-10-11T07:49:38.469Z,12.70
2017-10-11T07:52:49.478Z,12.70
2017-10-11T07:55:59.679Z,12.70
2017-10-11T07:59:11.362Z,12.70
2017-10-11T08:02:21.590Z,12.70
2017-10-11T08:05:33.138Z,12.80
2017-10-11T08:08:44.455Z,12.90
2017-10-11T08:11:55.112Z,12.90
2017-10-11T08:15:06.383Z,13.00
2017-10-11T08:24:41.196Z,13.10
2017-10-11T08:27:52.309Z,13.10
2017-10-11T08:31:02.293Z,13.10
2017-10-11T08:34:12.858Z,13.10
2017-10-11T08:37:23.533Z,13.20
2017-10-11T08:40:33.429Z,13.10
2017-10-11T08:43:43.378Z,13.20
2017-10-11T08:46:54.254Z,13.30
2017-10-11T08:50:04.936Z,13.30
2017-10-11T08:53:15.665Z,13.30
2017-10-11T08:56:25.851Z,13.30
2017-10-11T08:59:36.494Z,13.40
2017-10-11T09:02:47.530Z,13.40
2017-10-11T09:06:01.691Z,13.50
2017-10-11T09:09:22.122Z,13.50
2017-10-11T09:12:32.806Z,13.60
2017-10-11T09:15:43.609Z,13.70
2017-10-11T09:18:54.262Z,13.70
2017-10-11T09:22:05.754Z,13.80
2017-10-11T09:25:16.303Z,13.80
2017-10-11T09:28:26.845Z,13.90
2017-10-11T09:31:38.812Z,14.00
2017-10-11T09:34:50.576Z,14.00
2017-10-11T09:38:01.236Z,14.00
2017-10-11T09:41:12.748Z,14.20
2017-10-11T09:47:35.793Z,14.20
2017-10-11T09:50:46.469Z,14.20
2017-10-11T09:53:56.455Z,14.20
2017-10-11T09:57:06.960Z,14.30
2017-10-11T10:00:17.626Z,14.50
2017-10-11T10:03:27.695Z,14.50
2017-10-11T10:06:37.639Z,14.60
2017-10-11T10:16:13.696Z,14.90
2017-10-11T10:19:24.077Z,14.90
2017-10-11T10:22:35.095Z,15.00
2017-10-11T10:25:46.324Z,14.90
2017-10-11T10:28:56.767Z,14.90
2017-10-11T10:32:07.509Z,15.10
2017-10-11T11:00:53.748Z,15.30
2017-10-11T11:04:04.385Z,15.40
2017-10-11T11:07:15.061Z,15.40
2017-10-11T11:10:24.997Z,15.40
2017-10-11T11:13:35.875Z,15.30
2017-10-11T11:16:45.775Z,15.40
2017-10-11T11:19:56.284Z,15.60
2017-10-11T11:23:06.653Z,15.70
2017-10-11T11:26:16.548Z,15.90
2017-10-11T11:29:26.541Z,15.80
2017-10-11T11:32:36.508Z,15.80
2017-10-11T11:35:46.436Z,15.70
2017-10-11T11:38:57.974Z,15.80
2017-10-11T11:42:08.057Z,15.80
2017-10-11T11:45:19.754Z,15.80
2017-10-11T11:48:31.294Z,15.60
2017-10-11T11:51:41.231Z,15.60
2017-10-11T11:54:51.983Z,15.50
2017-10-11T11:58:03.520Z,15.70
2017-10-11T12:01:14.967Z,15.70
2017-10-11T12:04:26.193Z,15.90
2017-10-11T12:07:36.390Z,15.90
2017-10-11T12:10:47.059Z,15.70
2017-10-11T12:13:58.520Z,15.60
2017-10-11T12:17:09.284Z,15.60
2017-10-11T12:20:25.902Z,15.70
2017-10-11T12:23:35.953Z,15.80
2017-10-11T12:26:46.829Z,15.90
2017-10-11T12:29:57.479Z,15.90
2017-10-11T12:33:07.411Z,16.00
2017-10-11T12:36:18.334Z,16.10
2017-10-11T12:39:29.785Z,16.30
2017-10-11T12:42:40.170Z,16.30
2017-10-11T12:45:49.990Z,16.20
2017-10-11T12:49:00.700Z,16.00
2017-10-11T12:52:11.512Z,15.70
2017-10-11T12:55:21.367Z,15.80
2017-10-11T12:58:31.014Z,15.80
2017-10-11T13:01:40.779Z,15.90
2017-10-11T13:04:51.400Z,15.90
2017-10-11T13:14:25.962Z,15.80
2017-10-11T13:17:36.764Z,15.80
2017-10-11T13:20:48.278Z,15.70
2017-10-11T13:23:59.640Z,15.80
2017-10-11T13:27:10.286Z,15.80
2017-10-11T13:30:21.131Z,15.80
2017-10-11T13:33:30.963Z,15.90
2017-10-11T13:36:41.433Z,15.90
2017-10-11T13:39:51.286Z,15.90
2017-10-11T13:43:01.416Z,15.80
2017-10-11T13:46:11.288Z,15.80
2017-10-11T13:49:21.366Z,15.80
2017-10-11T13:52:31.912Z,15.50
2017-10-11T13:55:42.875Z,15.50
2017-10-11T13:58:52.639Z,15.50
2017-10-11T14:02:02.538Z,15.60
2017-10-11T14:05:12.475Z,15.80
2017-10-11T14:08:22.398Z,15.80
2017-10-11T14:11:33.929Z,16.00
2017-10-11T14:14:44.281Z,16.10
2017-10-11T14:17:54.733Z,15.90
2017-10-11T14:21:04.826Z,15.90
2017-10-11T14:24:15.562Z,15.70
2017-10-11T14:27:26.155Z,15.90
2017-10-11T14:30:36.842Z,16.00
2017-10-11T16:29:26.543Z,15.00
2017-10-11T16:32:37.107Z,15.00
2017-10-11T16:35:48.918Z,14.90
2017-10-11T16:38:59.652Z,14.90
2017-10-11T16:42:10.523Z,15.00
2017-10-11T16:45:21.244Z,15.00
2017-10-11T16:48:31.210Z,14.90
2017-10-11T16:51:41.893Z,14.80
2017-10-11T16:54:51.791Z,14.80
2017-10-11T16:58:02.396Z,14.70
2017-10-11T17:01:12.365Z,14.80
2017-10-11T17:04:23.990Z,14.70
2017-10-11T17:07:35.787Z,14.70
2017-10-11T17:10:49.092Z,14.60
2017-10-11T17:14:00.597Z,14.50
2017-10-11T17:17:10.500Z,14.60
2017-10-11T17:20:20.200Z,14.50
2017-10-11T17:23:30.527Z,14.50
2017-10-11T17:26:43.209Z,14.50
2017-10-11T17:29:55.933Z,14.40
2017-10-11T17:33:06.487Z,14.40
2017-10-11T17:36:17.225Z,14.40
2017-10-11T17:39:27.230Z,14.40
2017-10-11T17:42:37.909Z,14.30
2017-10-11T17:45:49.024Z,14.30
2017-10-11T17:48:59.365Z,14.20
2017-10-11T17:52:09.240Z,14.20
2017-10-11T17:55:19.929Z,14.30
2017-10-11T17:58:29.854Z,14.20
2017-10-11T18:01:40.665Z,14.20
2017-10-11T18:04:51.364Z,14.30
2017-10-11T18:08:07.116Z,14.20
2017-10-11T18:11:16.955Z,14.30
2017-10-11T18:14:27.642Z,14.20
2017-10-11T18:17:37.592Z,14.10
2017-10-11T18:20:48.316Z,14.10
2017-10-11T18:23:59.157Z,14.10
2017-10-11T18:27:09.511Z,14.10
2017-10-11T18:30:20.630Z,14.10
2017-10-11T18:33:33.270Z,14.10
2017-10-11T18:36:43.610Z,14.10
2017-10-11T18:39:53.506Z,14.00
2017-10-11T18:43:03.296Z,14.10
2017-10-11T18:46:13.290Z,14.10
2017-10-11T18:49:23.298Z,14.00
2017-10-11T18:52:34.122Z,14.00
2017-10-11T18:55:44.065Z,14.00
2017-10-11T18:58:54.822Z,14.10
2017-10-11T19:02:04.495Z,14.00
2017-10-11T19:05:14.532Z,14.00
2017-10-11T19:08:25.306Z,14.00
2017-10-11T19:11:36.079Z,14.00
2017-10-11T19:14:46.987Z,14.00
2017-10-11T19:17:57.120Z,14.00
2017-10-11T19:21:06.965Z,14.00
2017-10-11T19:24:18.340Z,13.90
2017-10-11T19:27:28.517Z,13.90
2017-10-11T19:30:38.473Z,13.90
2017-10-11T19:33:49.308Z,13.80
2017-10-11T19:36:59.320Z,13.80
2017-10-11T19:40:10.613Z,13.70
2017-10-11T19:43:21.568Z,13.70
2017-10-11T19:46:31.728Z,13.70
2017-10-11T19:49:43.207Z,13.60
2017-10-11T19:52:53.127Z,13.60
2017-10-11T19:56:02.996Z,13.60
2017-10-11T19:59:13.549Z,13.70
2017-10-11T20:02:23.354Z,13.60
2017-10-11T20:05:33.239Z,13.60
2017-10-11T20:08:44.005Z,13.60
2017-10-11T20:11:54.833Z,13.70
2017-10-11T20:15:05.558Z,13.70
2017-10-11T20:18:15.262Z,13.60
2017-10-11T20:21:25.226Z,13.60
2017-10-11T20:24:35.951Z,13.60
2017-10-11T20:27:45.860Z,13.60
2017-10-11T20:30:56.652Z,13.60
2017-10-11T20:34:07.252Z,13.60
2017-10-11T20:37:17.415Z,13.60
2017-10-11T20:40:28.171Z,13.70
2017-10-11T20:43:39.198Z,13.60
2017-10-11T20:46:49.694Z,13.60
2017-10-11T20:49:59.768Z,13.60
2017-10-11T20:53:10.528Z,13.60
2017-10-11T20:56:20.461Z,13.60
2017-10-11T20:59:30.487Z,13.60
2017-10-11T21:02:41.132Z,13.60
2017-10-11T21:05:51.201Z,13.60
2017-10-11T21:09:01.739Z,13.60
2017-10-11T21:12:13.268Z,13.50
2017-10-11T21:15:23.221Z,13.50
2017-10-11T21:18:33.250Z,13.50
2017-10-11T21:21:43.920Z,13.50
2017-10-11T21:24:54.247Z,13.40
2017-10-11T21:28:04.940Z,13.50
2017-10-11T21:31:15.553Z,13.50
2017-10-11T21:34:25.683Z,13.50
2017-10-11T21:37:36.382Z,13.50
2017-10-11T21:40:47.468Z,13.50
2017-10-11T21:43:57.978Z,13.50
2017-10-11T21:47:08.848Z,13.40
2017-10-11T21:50:19.528Z,13.40
2017-10-11T21:53:30.592Z,13.30
2017-10-11T21:56:42.826Z,13.40
2017-10-11T21:59:56.439Z,13.30
2017-10-11T22:03:09.807Z,13.40
2017-10-11T22:06:23.072Z,13.30
2017-10-11T22:09:36.501Z,13.30
2017-10-11T22:12:51.253Z,13.20
2017-10-11T22:16:06.426Z,13.20
2017-10-11T22:22:39.437Z,13.10
2017-10-11T22:25:55.080Z,13.10
2017-10-11T22:29:12.963Z,13.20
2017-10-11T22:32:50.900Z,13.10
2017-10-11T22:36:01.801Z,13.10
2017-10-11T22:39:12.577Z,12.90
2017-10-11T22:42:22.453Z,12.90
2017-10-11T22:45:32.310Z,12.80
2017-10-11T22:48:42.482Z,12.70
2017-10-11T22:51:52.834Z,12.50
2017-10-11T22:55:02.737Z,12.50
2017-10-11T22:58:14.140Z,12.40
2017-10-11T23:01:24.252Z,12.40
2017-10-11T23:04:35.759Z,12.30
2017-10-11T23:07:45.766Z,12.30
2017-10-11T23:10:55.789Z,12.20
2017-10-11T23:14:07.409Z,12.20
2017-10-11T23:17:17.163Z,12.10
2017-10-11T23:20:26.938Z,12.10
2017-10-11T23:23:36.853Z,12.10
2017-10-11T23:26:47.683Z,12.10
2017-10-11T23:29:57.724Z,12.10
2017-10-11T23:33:08.425Z,12.10
2017-10-11T23:36:18.296Z,12.00
2017-10-11T23:39:29.018Z,12.00
2017-10-11T23:42:39.816Z,11.90
2017-10-11T23:45:50.509Z,11.90
2017-10-11T23:49:00.393Z,11.90
2017-10-11T23:52:10.410Z,11.90
2017-10-11T23:55:21.223Z,11.90
2017-10-11T23:58:31.169Z,11.80
